Time;durP1;ratioP1;P1;durP2;ratioP2;P2;SDS_P1;SDS_P2;PMS_P1;PMS_P2;Temp;Humidity;BMP_temperature;BMP_pressure;BME280_temperature;BME280_humidity;BME280_pressure;Samples;Min_cycle;Max_cycle;Signal;HPM_P1;HPM_P2
2022/10/18 00:01:49;;;;;;;39.20;24.63;;;;;;;12.33;100.00;101918.66;5000893;28;20453;-62
2022/10/18 00:04:15;;;;;;;38.42;26.23;;;;;;;12.36;100.00;101918.41;4995586;28;20054;-62
2022/10/18 00:06:41;;;;;;;38.70;26.55;;;;;;;12.38;100.00;101922.56;5002133;28;20030;-62
2022/10/18 00:09:06;;;;;;;41.67;27.10;;;;;;;12.38;100.00;101914.72;5005166;28;20034;-62
2022/10/18 00:11:32;;;;;;;42.10;29.33;;;;;;;12.37;100.00;101923.50;5004983;28;20124;-62
2022/10/18 00:13:58;;;;;;;43.90;28.60;;;;;;;12.39;100.00;101924.22;5006555;28;20137;-63
2022/10/18 00:16:24;;;;;;;44.13;27.33;;;;;;;12.37;100.00;101926.13;5004919;28;20041;-62
2022/10/18 00:18:49;;;;;;;42.58;28.65;;;;;;;12.36;100.00;101918.41;5006500;28;20037;-63
2022/10/18 00:21:20;;;;;;;39.55;26.92;;;;;;;12.37;100.00;101928.75;5003614;28;20449;-63
2022/10/18 00:23:47;;;;;;;40.45;27.52;;;;;;;12.35;100.00;101912.34;5005083;28;20387;-62
2022/10/18 00:26:16;;;;;;;40.55;28.08;;;;;;;12.36;100.00;101915.78;5002277;28;20941;-63
2022/10/18 00:28:42;;;;;;;44.95;28.40;;;;;;;12.35;100.00;101916.75;5003769;28;20057;-63
2022/10/18 00:31:15;;;;;;;44.70;29.33;;;;;;;12.32;100.00;101911.75;5003587;28;20121;-63
2022/10/18 00:33:42;;;;;;;43.65;28.15;;;;;;;12.33;100.00;101905.56;5004048;28;20030;-62
2022/10/18 00:36:08;;;;;;;43.85;28.80;;;;;;;12.32;100.00;101901.31;5001616;28;20038;-62
2022/10/18 00:38:34;;;;;;;42.05;28.67;;;;;;;12.31;100.00;101903.09;5002508;28;20030;-62
2022/10/18 00:41:01;;;;;;;36.75;25.42;;;;;;;12.32;100.00;101890.84;5004514;28;20040;-62
2022/10/18 00:43:26;;;;;;;41.05;27.75;;;;;;;12.28;100.00;101891.13;5000420;28;20057;-62
2022/10/18 00:45:51;;;;;;;39.30;26.95;;;;;;;12.27;100.00;101893.84;5003224;28;20464;-62
2022/10/18 00:48:18;;;;;;;39.03;28.00;;;;;;;12.28;100.00;101891.13;5000484;28;20042;-62
2022/10/18 00:50:45;;;;;;;40.45;26.55;;;;;;;12.26;100.00;101893.03;5002256;28;20025;-65
2022/10/18 00:53:19;;;;;;;35.72;25.40;;;;;;;12.23;100.00;101888.03;5003391;28;20030;-63
2022/10/18 00:55:45;;;;;;;39.90;25.45;;;;;;;12.21;100.00;101889.09;5005221;28;20077;-63
2022/10/18 00:58:14;;;;;;;42.30;26.50;;;;;;;12.19;100.00;101893.63;5000225;28;20106;-63
2022/10/18 01:00:40;;;;;;;38.90;25.55;;;;;;;12.16;100.00;101889.47;4999318;28;20073;-63
2022/10/18 01:03:07;;;;;;;42.03;27.60;;;;;;;12.18;100.00;101879.72;5004760;28;20080;-62
2022/10/18 01:05:37;;;;;;;41.92;26.27;;;;;;;12.18;100.00;101884.13;5001131;28;20030;-62
2022/10/18 01:08:15;;;;;;;38.67;26.75;;;;;;;12.16;100.00;101876.41;5001531;28;20136;-64
2022/10/18 01:10:41;;;;;;;41.97;28.00;;;;;;;12.15;100.00;101874.75;5004848;28;20030;-62
2022/10/18 01:13:25;;;;;;;41.50;26.25;;;;;;;12.10;100.00;101874.25;4998645;28;20111;-62
2022/10/18 01:15:59;;;;;;;41.47;28.65;;;;;;;12.07;100.00;101876.28;5004370;28;20370;-62
2022/10/18 01:18:47;;;;;;;42.58;27.13;;;;;;;12.07;100.00;101865.84;5000029;28;20527;-63
2022/10/18 01:21:33;;;;;;;46.35;29.05;;;;;;;12.10;100.00;101860.38;4999412;28;20034;-62
2022/10/18 01:24:12;;;;;;;44.90;27.08;;;;;;;12.13;100.00;101867.97;5000939;28;20521;-62
2022/10/18 01:26:49;;;;;;;42.25;28.65;;;;;;;12.16;100.00;101865.94;4997906;28;144565;-62
2022/10/18 01:29:36;;;;;;;45.30;28.35;;;;;;;12.12;100.00;101856.69;4999398;28;20132;-63
2022/10/18 01:32:07;;;;;;;43.38;29.25;;;;;;;12.10;100.00;101853.38;4997802;28;20065;-63
2022/10/18 01:34:35;;;;;;;42.03;26.10;;;;;;;12.10;100.00;101853.38;4997550;28;20072;-67
2022/10/18 01:37:05;;;;;;;37.80;28.50;;;;;;;12.10;100.00;101855.97;5000407;28;20073;-65
2022/10/18 01:39:35;;;;;;;40.53;28.15;;;;;;;12.12;100.00;101842.78;5000841;28;20120;-65
2022/10/18 01:42:05;;;;;;;43.60;29.08;;;;;;;12.10;100.00;101850.75;5003615;28;20045;-62
2022/10/18 01:44:32;;;;;;;42.17;29.27;;;;;;;12.11;100.00;101841.13;4999836;28;20108;-62
2022/10/18 01:46:58;;;;;;;36.00;25.42;;;;;;;12.14;100.00;101843.50;5004166;28;20038;-62
2022/10/18 01:49:25;;;;;;;42.97;27.42;;;;;;;12.14;100.00;101844.34;5000650;28;20052;-63
2022/10/18 01:51:50;;;;;;;37.55;26.27;;;;;;;12.12;100.00;101843.63;4999280;28;20462;-63
2022/10/18 01:54:28;;;;;;;42.85;28.40;;;;;;;12.09;100.00;101841.25;5004211;28;20026;-62
2022/10/18 01:56:54;;;;;;;37.60;26.67;;;;;;;12.09;100.00;101838.66;5001503;28;20053;-62
2022/10/18 01:59:53;;;;;;;39.67;27.13;;;;;;;12.08;100.00;101838.75;5001501;28;20025;-63
2022/10/18 02:02:27;;;;;;;43.90;29.17;;;;;;;12.06;100.00;101831.03;5003614;28;20097;-63
2022/10/18 02:05:17;;;;;;;45.35;28.63;;;;;;;12.05;100.00;101821.53;4998767;28;20131;-62
2022/10/18 02:07:52;;;;;;;39.53;26.95;;;;;;;12.30;100.00;101829.09;4997355;28;20428;-64
2022/10/18 02:10:21;;;;;;;44.70;28.75;;;;;;;12.46;100.00;101818.22;5001015;28;20531;-62
2022/10/18 02:12:50;;;;;;;42.65;27.80;;;;;;;12.42;100.00;101813.38;5006940;28;20026;-62
2022/10/18 02:15:21;;;;;;;40.75;25.25;;;;;;;12.51;100.00;101820.47;5006558;28;20038;-63
2022/10/18 02:17:47;;;;;;;36.10;23.77;;;;;;;12.72;100.00;101820.53;5007459;28;20044;-63
2022/10/18 02:20:18;;;;;;;28.10;21.38;;;;;;;12.89;100.00;101812.94;5006791;28;20026;-62
2022/10/18 02:22:45;;;;;;;30.00;21.38;;;;;;;12.90;100.00;101813.75;5002978;28;20485;-63
2022/10/18 02:25:17;;;;;;;33.20;24.75;;;;;;;12.82;100.00;101814.38;5007058;28;20040;-62
2022/10/18 02:27:42;;;;;;;31.20;22.98;;;;;;;12.76;100.00;101816.72;5007775;28;20046;-62
2022/10/18 02:30:09;;;;;;;34.00;23.63;;;;;;;12.58;100.00;101814.63;5006098;28;20073;-63
2022/10/18 02:32:38;;;;;;;39.33;26.65;;;;;;;12.44;100.00;101811.47;5005370;28;20578;-62
2022/10/18 02:35:12;;;;;;;46.60;29.33;;;;;;;12.43;100.00;101809.81;5003850;28;20038;-62
2022/10/18 02:37:39;;;;;;;45.78;29.88;;;;;;;12.47;100.00;101811.22;5006072;28;20112;-62
2022/10/18 02:40:07;;;;;;;41.72;28.25;;;;;;;12.44;100.00;101806.25;4995364;28;20497;-62
2022/10/18 02:42:43;;;;;;;46.28;31.50;;;;;;;12.37;100.00;101805.91;5005929;28;20038;-63
2022/10/18 02:45:10;;;;;;;51.88;33.00;;;;;;;12.33;100.00;101803.66;5002348;28;20030;-63
2022/10/18 02:47:35;;;;;;;56.22;32.80;;;;;;;12.31;100.00;101803.78;5009532;28;20088;-65
2022/10/18 02:50:01;;;;;;;49.80;31.08;;;;;;;12.28;100.00;101804.88;5002251;28;20037;-62
2022/10/18 02:52:26;;;;;;;48.65;31.63;;;;;;;12.19;100.00;101803.00;5004391;28;20022;-63
2022/10/18 02:54:52;;;;;;;46.55;28.88;;;;;;;12.16;100.00;101811.09;5007097;28;20064;-63
2022/10/18 02:57:17;;;;;;;43.42;29.77;;;;;;;12.16;100.00;101811.09;5006357;28;20045;-66
2022/10/18 02:59:43;;;;;;;43.33;29.63;;;;;;;12.22;100.00;101802.75;4999782;28;20069;-62
2022/10/18 03:02:08;;;;;;;33.85;24.38;;;;;;;12.47;100.00;101803.38;5003992;28;20065;-62
2022/10/18 03:04:34;;;;;;;35.60;25.42;;;;;;;12.58;100.00;101814.63;5003061;28;20033;-63
2022/10/18 03:06:59;;;;;;;30.27;23.70;;;;;;;12.54;100.00;101802.75;5330979;22;20043;-64
2022/10/18 03:09:25;;;;;;;33.83;22.30;;;;;;;12.59;100.00;101811.06;4980651;22;20053;-86
2022/10/18 03:11:50;;;;;;;28.35;22.15;;;;;;;12.83;100.00;101810.00;5010739;28;20022;-86
2022/10/18 03:14:15;;;;;;;27.67;20.98;;;;;;;12.98;100.00;101810.50;5010268;28;20041;-86
2022/10/18 03:16:41;;;;;;;26.83;21.13;;;;;;;13.02;100.00;101817.16;5010021;28;20567;-85
2022/10/18 03:19:06;;;;;;;29.52;21.70;;;;;;;13.06;100.00;101823.78;5010492;28;20030;-86
2022/10/18 03:21:32;;;;;;;26.92;19.17;;;;;;;13.11;100.00;101827.69;4992541;28;20026;-84
2022/10/18 03:23:58;;;;;;;28.75;20.08;;;;;;;13.13;100.00;101820.53;4991968;28;20386;-85
2022/10/18 03:26:24;;;;;;;30.23;20.42;;;;;;;13.18;100.00;101817.56;5010006;28;20461;-86
2022/10/18 03:28:49;;;;;;;25.55;19.95;;;;;;;13.17;100.00;101826.38;4991871;28;20117;-85
2022/10/18 03:31:15;;;;;;;25.55;19.10;;;;;;;13.19;100.00;101820.06;4991921;28;20504;-87
2022/10/18 03:33:40;;;;;;;25.02;18.55;;;;;;;13.19;100.00;101824.47;4992115;28;20107;-86
2022/10/18 03:36:06;;;;;;;26.40;20.10;;;;;;;13.23;100.00;101831.09;5009993;28;20030;-87
2022/10/18 03:38:31;;;;;;;28.70;20.55;;;;;;;13.30;100.00;101827.00;4992083;28;20447;-86
2022/10/18 03:40:57;;;;;;;25.02;19.23;;;;;;;13.32;100.00;101835.53;4992173;28;20360;-86
2022/10/18 03:43:22;;;;;;;29.00;20.27;;;;;;;13.31;100.00;101833.88;4991474;28;20034;-86
2022/10/18 03:45:47;;;;;;;27.40;19.35;;;;;;;13.31;100.00;101833.88;4992100;28;20083;-84
2022/10/18 03:48:13;;;;;;;25.60;19.45;;;;;;;13.29;100.00;101835.81;4991769;28;20030;-84
2022/10/18 03:50:38;;;;;;;24.10;18.05;;;;;;;13.27;100.00;101837.72;4992088;28;20031;-86
2022/10/18 03:53:04;;;;;;;26.35;18.50;;;;;;;13.25;100.00;101839.63;4991959;28;20032;-85
2022/10/18 03:55:29;;;;;;;26.52;19.83;;;;;;;13.23;100.00;101838.97;5009569;28;20033;-85
2022/10/18 03:57:55;;;;;;;26.45;18.52;;;;;;;13.19;100.00;101832.31;4992250;28;20036;-87
2022/10/18 04:00:21;;;;;;;29.45;19.55;;;;;;;13.19;100.00;101840.16;5009672;28;20424;-87
2022/10/18 04:02:47;;;;;;;28.58;20.08;;;;;;;13.19;100.00;101832.31;5009813;28;20427;-87
2022/10/18 04:05:13;;;;;;;23.67;18.50;;;;;;;13.20;100.00;101849.69;5009350;28;20038;-87
2022/10/18 04:07:38;;;;;;;26.98;20.75;;;;;;;13.22;100.00;101840.75;5009143;28;20166;-87
2022/10/18 04:10:04;;;;;;;27.20;19.85;;;;;;;13.25;100.00;101844.88;5009443;28;20369;-86
2022/10/18 04:12:30;;;;;;;25.98;20.70;;;;;;;13.22;100.00;101845.16;4991193;28;20034;-87
2022/10/18 04:14:55;;;;;;;30.25;20.77;;;;;;;13.19;100.00;101841.00;4991337;28;20026;-86
2022/10/18 04:17:21;;;;;;;24.50;19.38;;;;;;;13.16;100.00;101837.81;4991331;28;20072;-87
2022/10/18 04:19:46;;;;;;;26.65;20.58;;;;;;;13.17;100.00;101842.09;5009313;28;20022;-85
2022/10/18 04:22:12;;;;;;;28.38;19.38;;;;;;;13.16;100.00;101846.50;5009010;28;20029;-86
2022/10/18 04:24:37;;;;;;;26.67;18.92;;;;;;;13.16;100.00;101846.50;5008743;28;20030;-85
2022/10/18 04:27:04;;;;;;;26.05;19.60;;;;;;;13.19;100.00;101850.63;5007857;28;20022;-85
2022/10/18 04:29:30;;;;;;;25.00;19.25;;;;;;;13.20;100.00;101845.28;5008500;28;20134;-86
2022/10/18 04:31:55;;;;;;;24.17;19.27;;;;;;;13.18;100.00;101839.34;4990664;28;20062;-85
2022/10/18 04:34:21;;;;;;;26.80;19.42;;;;;;;13.17;100.00;101842.09;5008668;28;20385;-86
2022/10/18 04:36:46;;;;;;;24.00;18.77;;;;;;;13.16;100.00;101840.44;4991013;28;20044;-88
2022/10/18 04:39:11;;;;;;;27.58;19.60;;;;;;;13.12;100.00;101829.34;5008758;28;20114;-86
2022/10/18 04:41:37;;;;;;;26.48;20.13;;;;;;;13.09;100.00;101841.84;5008576;28;20026;-86
2022/10/18 04:44:02;;;;;;;25.27;19.88;;;;;;;13.09;100.00;101841.84;4990679;28;20034;-87
2022/10/18 04:46:28;;;;;;;28.95;18.50;;;;;;;13.09;100.00;101831.38;5008718;28;20104;-86
2022/10/18 04:48:53;;;;;;;25.65;19.38;;;;;;;13.09;100.00;101829.59;5008786;28;20022;-85
2022/10/18 04:51:18;;;;;;;27.17;19.60;;;;;;;13.10;100.00;101825.19;5008599;28;20030;-85
2022/10/18 04:53:44;;;;;;;26.52;19.05;;;;;;;13.08;100.00;101822.72;5008569;28;20029;-86
2022/10/18 04:56:09;;;;;;;33.00;20.58;;;;;;;13.07;100.00;101825.47;5008799;28;20385;-86
2022/10/18 04:58:35;;;;;;;26.48;20.35;;;;;;;13.04;100.00;101821.31;5008802;28;20021;-85
2022/10/18 05:01:05;;;;;;;26.88;19.35;;;;;;;13.03;100.00;101819.66;5008734;28;20026;-85
2022/10/18 05:03:30;;;;;;;26.10;20.05;;;;;;;13.01;100.00;101820.72;5008829;28;20030;-86
2022/10/18 05:05:56;;;;;;;30.38;19.73;;;;;;;13.01;100.00;101820.72;5008899;28;20105;-86
2022/10/18 05:08:21;;;;;;;27.98;19.70;;;;;;;13.00;100.00;101808.59;5008396;28;20394;-85
2022/10/18 05:10:47;;;;;;;28.95;18.92;;;;;;;12.96;100.00;101813.25;4990641;28;20037;-86
2022/10/18 05:13:12;;;;;;;28.63;19.90;;;;;;;12.94;100.00;101808.16;5008496;28;20042;-86
2022/10/18 05:15:37;;;;;;;28.65;20.25;;;;;;;12.93;100.00;101805.66;5008501;28;20032;-86
2022/10/18 05:18:03;;;;;;;28.00;20.58;;;;;;;12.92;100.00;101799.59;5008129;28;20036;-86
2022/10/18 05:20:28;;;;;;;26.67;20.33;;;;;;;12.90;100.00;101801.50;4990764;28;20033;-86
2022/10/18 05:22:54;;;;;;;26.98;20.45;;;;;;;12.87;100.00;101804.38;5008472;28;20033;-85
2022/10/18 05:25:19;;;;;;;27.50;19.00;;;;;;;12.89;100.00;101789.38;4990418;28;20509;-86
2022/10/18 05:27:44;;;;;;;24.52;19.63;;;;;;;12.86;100.00;101792.25;4990225;28;20072;-86
2022/10/18 05:30:10;;;;;;;26.05;19.05;;;;;;;12.90;100.00;101796.28;5008098;28;20080;-86
2022/10/18 05:32:35;;;;;;;27.33;20.88;;;;;;;12.85;100.00;101787.97;5008285;28;20052;-86
2022/10/18 05:35:01;;;;;;;30.33;21.58;;;;;;;12.71;100.00;101790.94;5008367;28;20044;-85
2022/10/18 05:37:26;;;;;;;32.00;24.02;;;;;;;12.57;100.00;101791.22;5008042;28;20492;-85
2022/10/18 05:39:52;;;;;;;33.60;23.65;;;;;;;12.48;100.00;101792.81;5006855;28;20041;-86
2022/10/18 05:42:17;;;;;;;33.30;24.08;;;;;;;12.45;100.00;101798.28;5007602;28;20037;-85
2022/10/18 05:44:42;;;;;;;29.08;24.17;;;;;;;12.39;100.00;101795.31;5007910;28;20036;-86
2022/10/18 05:47:08;;;;;;;33.28;24.55;;;;;;;12.29;100.00;101798.66;4989988;28;20034;-85
2022/10/18 05:49:34;;;;;;;35.22;24.63;;;;;;;12.26;100.00;101798.94;5008016;28;20029;-85
2022/10/18 05:52:00;;;;;;;35.17;24.73;;;;;;;12.32;100.00;101804.59;4990270;28;20398;-85
2022/10/18 05:54:25;;;;;;;37.80;25.85;;;;;;;12.23;100.00;101804.41;5008083;28;20047;-85
2022/10/18 05:56:51;;;;;;;36.08;24.95;;;;;;;12.20;100.00;101803.84;4990035;28;20471;-85
2022/10/18 05:59:16;;;;;;;34.70;25.55;;;;;;;12.19;100.00;101803.00;5007647;28;20036;-85
2022/10/18 06:01:42;;;;;;;32.28;22.73;;;;;;;12.31;100.00;101801.16;5008380;28;20484;-84
2022/10/18 06:04:09;;;;;;;36.60;23.02;;;;;;;12.39;100.00;101801.38;5008042;28;20382;-84
2022/10/18 06:06:35;;;;;;;30.20;23.10;;;;;;;12.40;100.00;101800.44;5008163;28;20436;-85
2022/10/18 06:09:02;;;;;;;31.35;21.65;;;;;;;12.51;100.00;101807.41;5007699;28;20073;-85
2022/10/18 06:11:28;;;;;;;27.17;20.73;;;;;;;12.68;100.00;101804.25;5007888;28;20025;-85
2022/10/18 06:13:53;;;;;;;28.35;21.27;;;;;;;12.75;100.00;101804.59;5007812;28;20499;-85
2022/10/18 06:16:21;;;;;;;30.40;23.10;;;;;;;12.75;100.00;101808.03;4990006;28;20033;-85
2022/10/18 06:18:50;;;;;;;33.28;23.17;;;;;;;12.76;100.00;101809.66;4990004;28;20026;-86
2022/10/18 06:21:16;;;;;;;27.92;21.67;;;;;;;12.71;100.00;101813.63;4989681;28;20068;-85
2022/10/18 06:23:42;;;;;;;35.13;23.70;;;;;;;12.68;100.00;101814.72;5007023;28;20053;-86
2022/10/18 06:26:10;;;;;;;32.83;24.55;;;;;;;12.59;100.00;101813.69;5004965;28;20057;-86
2022/10/18 06:28:36;;;;;;;38.33;25.98;;;;;;;12.56;100.00;101807.88;5007910;28;20022;-86
2022/10/18 06:31:03;;;;;;;35.85;25.85;;;;;;;12.53;100.00;101815.97;4980393;28;20026;-86
2022/10/18 06:33:33;;;;;;;37.00;24.48;;;;;;;12.58;100.00;101819.03;5005231;28;20030;-87
2022/10/18 06:36:01;;;;;;;26.38;21.20;;;;;;;12.81;100.00;101815.34;4987034;28;20144;-86
2022/10/18 06:38:28;;;;;;;28.55;19.67;;;;;;;13.03;100.00;101824.06;5002740;28;20426;-86
2022/10/18 06:40:55;;;;;;;28.40;18.25;;;;;;;13.21;100.00;101818.16;5004881;28;20092;-86
2022/10/18 06:43:21;;;;;;;25.35;17.27;;;;;;;13.31;100.00;101826.03;5001250;28;20036;-86
2022/10/18 06:45:47;;;;;;;24.33;19.10;;;;;;;13.35;100.00;101831.84;4982300;28;20034;-86
2022/10/18 06:48:12;;;;;;;24.23;17.88;;;;;;;13.37;100.00;101838.59;5006382;28;20042;-87
2022/10/18 06:50:37;;;;;;;28.65;18.02;;;;;;;13.36;100.00;101830.88;5002740;28;20068;-86
2022/10/18 06:53:05;;;;;;;25.60;17.88;;;;;;;13.36;100.00;101836.13;5008732;28;20571;-86
2022/10/18 06:55:30;;;;;;;22.55;18.23;;;;;;;13.39;100.00;101841.09;5007828;28;20056;-86
2022/10/18 06:57:56;;;;;;;25.90;18.63;;;;;;;13.42;100.00;101840.84;4987955;28;20022;-85
2022/10/18 07:00:22;;;;;;;26.85;19.17;;;;;;;13.46;100.00;101842.25;4988044;28;20042;-85
2022/10/18 07:02:47;;;;;;;21.80;17.60;;;;;;;13.49;100.00;101847.22;4979369;28;20029;-85
2022/10/18 07:05:13;;;;;;;26.15;17.75;;;;;;;13.56;100.00;101843.97;4989854;28;20046;-85
2022/10/18 07:07:38;;;;;;;25.75;18.45;;;;;;;13.61;100.00;101846.19;5006838;28;20054;-85
2022/10/18 07:10:04;;;;;;;25.02;17.52;;;;;;;13.68;100.00;101851.72;4988234;28;20385;-85
2022/10/18 07:12:31;;;;;;;26.13;18.13;;;;;;;13.73;100.00;101839.88;5005321;28;20029;-84
2022/10/18 07:14:56;;;;;;;26.05;19.27;;;;;;;13.75;100.00;101842.38;4990627;28;20487;-85
2022/10/18 07:17:21;;;;;;;29.73;18.25;;;;;;;13.81;100.00;101847.06;5006164;28;20136;-84
2022/10/18 07:19:47;;;;;;;24.67;18.30;;;;;;;13.90;100.00;101846.28;5006650;28;20384;-86
2022/10/18 07:22:12;;;;;;;21.50;18.05;;;;;;;13.95;100.00;101849.34;5007846;28;20434;-86
2022/10/18 07:24:38;;;;;;;22.33;16.88;;;;;;;14.01;100.00;101853.22;4988727;28;20032;-86
2022/10/18 07:27:03;;;;;;;25.42;17.25;;;;;;;14.05;100.00;101838.91;4998049;28;20447;-81
2022/10/18 07:29:29;;;;;;;20.45;17.17;;;;;;;14.13;100.00;101841.69;5002674;28;20032;-80
2022/10/18 07:31:54;;;;;;;21.63;15.10;;;;;;;14.25;100.00;101851.91;5007871;28;20037;-81
2022/10/18 07:34:20;;;;;;;19.88;17.55;;;;;;;14.29;100.00;101841.97;5005708;28;20060;-82
2022/10/18 07:36:45;;;;;;;21.90;17.63;;;;;;;14.39;100.00;101842.00;4989037;28;20060;-82
2022/10/18 07:39:10;;;;;;;26.38;18.25;;;;;;;14.47;100.00;101850.06;4994609;28;20445;-82
2022/10/18 07:41:36;;;;;;;22.42;17.90;;;;;;;14.52;100.00;101847.84;5001851;28;20034;-82
2022/10/18 07:44:02;;;;;;;23.45;18.08;;;;;;;14.57;100.00;101845.66;4989332;28;21595;-81
2022/10/18 07:46:28;;;;;;;22.98;17.33;;;;;;;14.64;100.00;101841.50;4990555;28;20508;-81
2022/10/18 07:48:54;;;;;;;20.90;17.35;;;;;;;14.74;100.00;101839.69;5002544;28;20037;-82
2022/10/18 07:51:20;;;;;;;22.95;17.85;;;;;;;14.80;100.00;101840.94;5003841;28;20022;-81
2022/10/18 07:53:45;;;;;;;22.70;17.00;;;;;;;14.88;100.00;101834.03;4993309;28;20119;-81
2022/10/18 07:56:19;;;;;;;19.80;17.00;;;;;;;14.96;100.00;101838.59;4993640;28;20030;-81
2022/10/18 07:58:47;;;;;;;23.85;18.10;;;;;;;15.04;100.00;101830.03;5008863;28;20034;-82
2022/10/18 08:01:14;;;;;;;25.02;17.08;;;;;;;15.06;100.00;101828.09;5008167;28;20056;-81
2022/10/18 08:03:40;;;;;;;25.02;17.33;;;;;;;15.05;100.00;101829.06;4990255;28;20026;-81
2022/10/18 08:06:10;;;;;;;21.85;17.98;;;;;;;15.11;100.00;101836.38;5008376;28;20089;-81
2022/10/18 08:08:37;;;;;;;23.38;17.38;;;;;;;15.23;100.00;101827.34;5008424;28;20042;-82
2022/10/18 08:11:05;;;;;;;21.85;17.05;;;;;;;15.29;100.00;101832.03;4990668;28;20030;-82
2022/10/18 08:13:31;;;;;;;18.25;16.17;;;;;;;15.38;100.00;101840.84;5008619;28;20041;-82
2022/10/18 08:16:05;;;;;;;18.10;15.98;;;;;;;15.41;100.00;101830.91;5008386;28;20030;-82
2022/10/18 08:18:31;;;;;;;20.80;15.75;;;;;;;15.47;100.00;101837.38;5008680;28;20599;-81
2022/10/18 08:21:01;;;;;;;21.13;15.98;;;;;;;15.52;100.00;101835.97;5008437;28;20157;-81
2022/10/18 08:23:27;;;;;;;21.85;16.40;;;;;;;15.57;100.00;101831.16;5008336;28;20029;-81
2022/10/18 08:25:53;;;;;;;21.48;15.88;;;;;;;15.56;100.00;101826.88;5007971;28;20497;-81
2022/10/18 08:28:18;;;;;;;26.20;18.13;;;;;;;15.61;100.00;101818.53;5008049;28;20080;-81
2022/10/18 08:30:44;;;;;;;23.20;18.73;;;;;;;15.63;100.00;101827.09;5007927;28;20516;-81
2022/10/18 08:33:09;;;;;;;23.88;18.55;;;;;;;15.69;100.00;101826.53;5007596;28;20385;-81
2022/10/18 08:35:35;;;;;;;24.98;20.48;;;;;;;15.79;100.00;101823.84;5008147;28;20022;-81
2022/10/18 08:38:00;;;;;;;23.83;19.80;;;;;;;15.85;100.00;101816.22;5008078;28;20036;-81
2022/10/18 08:40:27;;;;;;;26.75;20.27;;;;;;;15.91;100.00;101817.44;5008092;28;20029;-81
2022/10/18 08:43:06;;;;;;;24.80;20.45;;;;;;;15.90;100.00;101815.78;5008102;28;20076;-81
2022/10/18 08:45:35;;;;;;;24.63;19.90;;;;;;;15.98;100.00;101812.44;5008061;28;20128;-82
2022/10/18 08:48:04;;;;;;;28.17;19.75;;;;;;;16.03;100.00;101811.03;5008048;28;20022;-81
2022/10/18 08:50:35;;;;;;;24.88;19.80;;;;;;;16.08;100.00;101806.13;5008176;28;20030;-81
2022/10/18 08:53:19;;;;;;;23.58;19.48;;;;;;;16.10;100.00;101812.06;4990456;28;20136;-81
2022/10/18 08:55:51;;;;;;;24.67;18.77;;;;;;;16.15;100.00;101799.28;5008051;28;20030;-81
2022/10/18 08:58:18;;;;;;;26.30;19.70;;;;;;;16.19;100.00;101798.03;5007963;28;20056;-82
2022/10/18 09:00:57;;;;;;;28.15;20.25;;;;;;;16.24;100.00;101802.84;5007528;28;20054;-81
2022/10/18 09:03:59;;;;;;;24.85;18.80;;;;;;;16.33;100.00;101791.44;4989760;28;20430;-80
2022/10/18 09:07:02;;;;;;;21.17;18.08;;;;;;;16.34;100.00;101789.63;4946555;29;20092;-81
2022/10/18 09:09:54;;;;;;;23.85;19.40;;;;;;;16.39;100.00;101790.00;4946681;29;20054;-80
2022/10/18 09:12:30;;;;;;;24.85;19.92;;;;;;;16.49;100.00;101788.13;4946579;29;20035;-81
2022/10/18 09:15:17;;;;;;;25.50;19.85;;;;;;;16.51;100.00;101794.06;4946476;29;20039;-81
2022/10/18 09:18:08;;;;;;;25.33;19.63;;;;;;;16.53;100.00;101782.41;4946315;29;20579;-80
2022/10/18 09:20:56;;;;;;;21.77;17.48;;;;;;;16.68;100.00;101787.16;4946453;29;20071;-81
2022/10/18 09:23:50;;;;;;;25.02;19.48;;;;;;;16.66;100.00;101787.31;4946284;29;20073;-81
2022/10/18 09:26:19;;;;;;;21.80;19.20;;;;;;;16.74;100.00;101784.75;4944031;29;20103;-81
2022/10/18 09:28:53;;;;;;;25.05;18.95;;;;;;;16.71;100.00;101774.53;4946229;29;20042;-81
2022/10/18 09:31:18;;;;;;;26.13;19.20;;;;;;;16.73;100.00;101777.00;4946270;29;20043;-81
2022/10/18 09:34:00;;;;;;;25.05;21.10;;;;;;;16.73;100.00;101777.81;4946179;29;20086;-81
2022/10/18 09:36:34;;;;;;;24.40;20.10;;;;;;;16.73;100.00;101772.56;4946222;29;20494;-80
2022/10/18 09:39:22;;;;;;;27.92;21.35;;;;;;;16.79;100.00;101766.69;4946364;29;20259;-81
2022/10/18 09:41:55;;;;;;;24.10;19.23;;;;;;;16.85;100.00;101768.72;4946149;29;20031;-81
2022/10/18 09:44:28;;;;;;;26.75;20.40;;;;;;;16.92;100.00;101769.75;5004127;28;20125;-81
2022/10/18 09:47:07;;;;;;;27.92;22.80;;;;;;;16.96;100.00;101765.00;5007435;28;20492;-81
2022/10/18 09:49:38;;;;;;;27.55;22.40;;;;;;;17.00;100.00;101765.53;5007283;28;20191;-81
2022/10/18 09:52:12;;;;;;;28.95;22.75;;;;;;;17.17;100.00;101769.88;4991371;28;20030;-81
2022/10/18 09:54:43;;;;;;;26.58;21.98;;;;;;;17.33;100.00;101762.09;4989663;28;20030;-81
2022/10/18 09:57:13;;;;;;;24.92;21.13;;;;;;;17.31;100.00;101758.78;5007058;28;20525;-79
2022/10/18 09:59:41;;;;;;;29.73;24.10;;;;;;;17.35;100.00;101762.75;5007143;28;20456;-81
2022/10/18 10:02:13;;;;;;;29.83;23.45;;;;;;;17.56;100.00;101755.25;5007000;28;20025;-81
2022/10/18 10:04:38;;;;;;;29.13;23.38;;;;;;;17.63;100.00;101758.06;5006812;28;20113;-81
2022/10/18 10:07:20;;;;;;;29.50;24.23;;;;;;;17.70;100.00;101753.03;5007022;28;20026;-81
2022/10/18 10:09:55;;;;;;;28.55;23.25;;;;;;;17.69;100.00;101749.56;5007098;28;20053;-81
2022/10/18 10:12:27;;;;;;;26.23;22.05;;;;;;;17.69;100.00;101746.94;5007206;28;20030;-81
2022/10/18 10:14:53;;;;;;;32.15;24.48;;;;;;;17.72;100.00;101743.16;5006845;28;20053;-81
2022/10/18 10:17:28;;;;;;;33.13;25.35;;;;;;;17.77;100.00;101751.41;5006544;28;20372;-81
2022/10/18 10:20:00;;;;;;;31.13;24.10;;;;;;;17.71;100.00;101741.50;5006846;28;20088;-81
2022/10/18 10:22:40;;;;;;;29.27;23.65;;;;;;;17.78;100.00;101743.34;4989020;28;20145;-81
2022/10/18 10:25:17;;;;;;;27.10;21.52;;;;;;;17.92;100.00;101738.44;5007922;28;20545;-81
2022/10/18 10:27:44;;;;;;;28.52;22.67;;;;;;;17.95;100.00;101738.94;5030186;28;20049;-80
2022/10/18 10:30:26;;;;;;;28.35;22.05;;;;;;;18.06;100.00;101733.34;5026611;28;20149;-81
2022/10/18 10:32:53;;;;;;;32.03;21.02;;;;;;;18.18;100.00;101737.31;5011904;28;20072;-81
2022/10/18 10:35:28;;;;;;;26.88;21.13;;;;;;;18.22;100.00;101733.38;5011414;28;20026;-81
2022/10/18 10:37:54;;;;;;;27.67;22.15;;;;;;;18.31;100.00;101730.72;5010410;28;20033;-81
2022/10/18 10:40:27;;;;;;;26.73;22.92;;;;;;;18.30;100.00;101723.81;5010145;28;20025;-81
2022/10/18 10:42:55;;;;;;;27.63;20.67;;;;;;;18.24;100.00;101723.47;5010547;28;20524;-81
2022/10/18 10:45:22;;;;;;;25.38;21.08;;;;;;;18.35;100.00;101716.22;5010257;28;20037;-81
2022/10/18 10:47:50;;;;;;;26.98;21.27;;;;;;;18.35;100.00;101714.41;5010539;28;20108;-81
2022/10/18 10:50:24;;;;;;;28.15;22.27;;;;;;;18.36;100.00;101708.16;5010697;28;20050;-81
2022/10/18 10:52:49;;;;;;;24.75;21.77;;;;;;;18.42;100.00;101704.84;5009985;28;20037;-81
2022/10/18 10:55:31;;;;;;;26.33;20.52;;;;;;;18.44;100.00;101702.00;5010237;28;20041;-81
2022/10/18 10:57:56;;;;;;;26.85;22.40;;;;;;;18.47;100.00;101694.59;5010140;28;20030;-81
2022/10/18 11:00:36;;;;;;;34.03;22.08;;;;;;;18.46;100.00;101698.22;5010189;28;20037;-81
2022/10/18 11:03:26;;;;;;;28.90;20.65;;;;;;;18.54;100.00;101689.47;4980588;28;20057;-81
2022/10/18 11:05:57;;;;;;;28.10;22.10;;;;;;;18.57;100.00;101687.34;5002234;28;20049;-81
2022/10/18 11:08:42;;;;;;;26.60;20.85;;;;;;;18.55;100.00;101686.66;5009563;28;20123;-81
2022/10/18 11:11:29;;;;;;;25.67;19.83;;;;;;;18.64;99.53;101686.69;5007246;28;20026;-81